84  °F
Temperature
29  °C
Temperature
19  °C
 Dewpoint
66  °F
  Dewpoint
55  %
 Humidity
  Temperature
9  mph
Wind Speed
8  kts
Wind Speed
14  km/h
Wind Speed
4.0  m/s
Wind Speed
270°
Due West

Wind Speed
Mostly Scattered
Clouds
Pressure 29.87 (inHG) - 1011.52 (mb)
Visibility 10.0 (mi) - 16.1 (km)

Sky Conditions
KLRF
Location Little Rock AFB 20 mi (32.18 km)
Metar :KLRF 192156Z AUTO 27008KT 10SM SCT042 29/19 A2987 RMK AO2 SLP115 T02900187 $
Sun 19th May 16:56 pm

Nearest Airport
https://www.checkwx.com/weather/KLRF
  Metar Aviation API Data Provided by https://www.checkwx.com/ Original CSS/SVG/PHP scripts by weather34.com © 2015-2019